Time;durP1;ratioP1;P1;durP2;ratioP2;P2;SDS_P1;SDS_P2;PMS_P1;PMS_P2;Temp;Humidity;BMP_temperature;BMP_pressure;BME280_temperature;BME280_humidity;BME280_pressure;Samples;Min_cycle;Max_cycle;Signal;HPM_P1;HPM_P2
2021/04/06 00:01:38;;;;;;;3.60;1.80;;;;;;;1.43;72.00;99425.27;1727108;81;21112;-77
2021/04/06 00:04:07;;;;;;;7.75;2.27;;;;;;;1.39;72.04;99436.72;1744772;81;21124;-77
2021/04/06 00:06:38;;;;;;;5.67;1.82;;;;;;;1.34;72.26;99430.34;1743963;81;21108;-77
2021/04/06 00:09:21;;;;;;;5.00;2.17;;;;;;;1.29;72.38;99437.97;1735212;81;20978;-77
2021/04/06 00:11:53;;;;;;;6.25;1.92;;;;;;;1.27;72.38;99439.66;1719037;82;21160;-77
2021/04/06 00:14:21;;;;;;;2.77;1.45;;;;;;;1.24;72.52;99442.63;1738603;82;21200;-77
2021/04/06 00:16:50;;;;;;;4.75;1.45;;;;;;;1.25;72.54;99443.05;1723025;82;21171;-78
2021/04/06 00:19:20;;;;;;;3.90;1.52;;;;;;;1.24;72.57;99446.44;1738153;81;21183;-78
2021/04/06 00:21:50;;;;;;;4.87;1.85;;;;;;;1.23;72.49;99448.56;1725425;82;21557;-77
2021/04/06 00:24:20;;;;;;;3.00;1.98;;;;;;;1.20;72.60;99455.77;1738357;82;21085;-77
2021/04/06 00:26:53;;;;;;;6.95;2.27;;;;;;;1.18;72.64;99454.91;1721081;82;22213;-77
2021/04/06 00:29:22;;;;;;;7.70;2.05;;;;;;;1.21;72.77;99462.98;1723710;82;21188;-77
2021/04/06 00:31:55;;;;;;;3.20;1.60;;;;;;;1.19;72.71;99459.58;1738395;82;21546;-77
2021/04/06 00:34:30;;;;;;;4.83;2.15;;;;;;;1.18;72.78;99462.55;1732597;82;21187;-77
2021/04/06 00:36:58;;;;;;;7.58;2.02;;;;;;;1.16;72.87;99459.14;1727928;82;21211;-77
2021/04/06 00:39:32;;;;;;;4.97;1.70;;;;;;;1.14;72.80;99459.56;1718946;82;21211;-77
2021/04/06 00:42:09;;;;;;;8.03;1.65;;;;;;;1.11;72.82;99458.70;1737550;82;21250;-77
2021/04/06 00:44:42;;;;;;;4.72;2.08;;;;;;;1.10;72.88;99465.48;1736136;82;21211;-77
2021/04/06 00:47:12;;;;;;;3.05;1.55;;;;;;;1.11;73.00;99465.92;1738395;82;21203;-77
2021/04/06 00:49:41;;;;;;;9.83;1.82;;;;;;;1.13;72.91;99469.73;1737871;82;21214;-77
2021/04/06 00:52:11;;;;;;;3.90;1.50;;;;;;;1.13;73.01;99469.73;1738318;82;21411;-77
2021/04/06 00:54:37;;;;;;;4.28;1.72;;;;;;;1.14;73.02;99462.11;1738062;82;21160;-77
2021/04/06 00:57:06;;;;;;;11.75;2.80;;;;;;;1.12;73.04;99471.86;1725992;82;21188;-77
2021/04/06 00:59:34;;;;;;;9.73;3.40;;;;;;;1.12;73.01;99472.71;1738234;82;21163;-77
2021/04/06 01:02:05;;;;;;;14.95;4.83;;;;;;;1.10;73.01;99471.00;1737858;82;21041;-77
2021/04/06 01:04:39;;;;;;;9.18;3.47;;;;;;;1.09;73.04;99480.34;1737657;81;21211;-77
2021/04/06 01:07:17;;;;;;;13.20;4.10;;;;;;;1.09;72.96;99481.61;1737823;81;21187;-77
2021/04/06 01:09:53;;;;;;;15.13;4.35;;;;;;;1.07;73.02;99483.72;1737678;81;21242;-77
2021/04/06 01:12:24;;;;;;;20.60;4.65;;;;;;;1.04;73.05;99482.47;1735912;82;21219;-77
2021/04/06 01:14:53;;;;;;;16.20;5.28;;;;;;;1.02;73.11;99482.46;1733556;82;21196;-77
2021/04/06 01:17:32;;;;;;;15.80;4.60;;;;;;;1.02;73.15;99491.79;1737909;82;21170;-77
2021/04/06 01:20:09;;;;;;;19.40;4.78;;;;;;;0.99;73.14;99490.08;1737343;81;21183;-77
2021/04/06 01:22:37;;;;;;;15.93;4.25;;;;;;;0.98;73.17;99500.69;1738479;82;20914;-78
2021/04/06 01:25:05;;;;;;;18.48;4.58;;;;;;;0.96;73.09;99496.43;1729689;81;21439;-77
2021/04/06 01:27:32;;;;;;;10.50;2.83;;;;;;;0.95;73.17;99499.81;1739474;81;20993;-77
2021/04/06 01:30:03;;;;;;;16.93;3.67;;;;;;;0.92;73.15;99503.20;1731003;81;20974;-77
2021/04/06 01:32:30;;;;;;;8.38;2.37;;;;;;;0.91;73.24;99503.19;1739404;81;20992;-77
2021/04/06 01:34:56;;;;;;;8.30;2.40;;;;;;;0.90;73.25;99497.67;1731872;81;638055;-78
2021/04/06 01:37:29;;;;;;;8.93;1.85;;;;;;;0.91;73.26;99501.91;1730529;82;21005;-78
2021/04/06 01:39:58;;;;;;;12.90;2.83;;;;;;;0.91;73.26;99505.73;1737392;82;21481;-77
2021/04/06 01:42:28;;;;;;;7.83;2.52;;;;;;;0.88;73.21;99504.45;1731718;82;20981;-77
2021/04/06 01:45:05;;;;;;;11.78;2.22;;;;;;;0.85;73.18;99508.25;1723418;82;20981;-77
2021/04/06 01:47:30;;;;;;;15.05;2.95;;;;;;;0.84;73.25;99510.36;1734218;82;21291;-77
2021/04/06 01:49:56;;;;;;;9.78;1.62;;;;;;;0.83;73.27;99517.14;1719295;82;20997;-77
2021/04/06 01:52:23;;;;;;;11.33;2.17;;;;;;;0.82;73.24;99517.98;1739754;81;21773;-77
2021/04/06 01:54:54;;;;;;;9.45;1.67;;;;;;;0.81;73.30;99509.92;1731244;82;21559;-77
2021/04/06 01:57:27;;;;;;;8.03;2.47;;;;;;;0.81;73.33;99511.62;1737139;81;21420;-77
2021/04/06 02:00:02;;;;;;;14.28;2.27;;;;;;;0.80;73.30;99523.91;1734726;82;21208;-77
2021/04/06 02:02:31;;;;;;;6.67;1.37;;;;;;;0.79;73.28;99514.57;1730618;82;21176;-77
2021/04/06 02:05:01;;;;;;;9.15;1.65;;;;;;;0.76;73.22;99523.04;1730930;82;21609;-77
2021/04/06 02:07:36;;;;;;;7.28;1.15;;;;;;;0.72;73.24;99525.55;1737645;82;21485;-77
2021/04/06 02:10:06;;;;;;;14.80;3.05;;;;;;;0.68;73.23;99523.41;1738309;81;21626;-77
2021/04/06 02:12:44;;;;;;;11.30;1.90;;;;;;;0.67;73.25;99536.97;1726457;82;22307;-77
2021/04/06 02:15:14;;;;;;;9.93;2.02;;;;;;;0.65;73.29;99537.38;1712350;82;21395;-77
2021/04/06 02:17:51;;;;;;;9.30;1.20;;;;;;;0.61;73.30;99534.39;1737819;82;21203;-77
2021/04/06 02:20:21;;;;;;;11.10;2.02;;;;;;;0.58;73.30;99535.22;1736923;82;21508;-77
2021/04/06 02:23:03;;;;;;;6.85;1.42;;;;;;;0.56;73.33;99534.78;1738163;81;21715;-77
2021/04/06 02:25:31;;;;;;;9.33;1.95;;;;;;;0.54;73.36;99532.22;1737964;81;21623;-77
2021/04/06 02:27:58;;;;;;;9.13;1.85;;;;;;;0.54;73.34;99544.09;1733735;82;21183;-77
2021/04/06 02:30:31;;;;;;;11.22;1.87;;;;;;;0.50;73.36;99541.13;1738217;82;21541;-77
2021/04/06 02:33:01;;;;;;;12.33;2.40;;;;;;;0.49;73.36;99531.38;1738413;82;21584;-77
2021/04/06 02:35:28;;;;;;;8.38;1.70;;;;;;;0.48;73.33;99541.53;1734454;82;21502;-77
2021/04/06 02:37:54;;;;;;;8.53;1.80;;;;;;;0.46;73.35;99549.15;1737506;82;22059;-77
2021/04/06 02:40:22;;;;;;;;;;;;;;;0.43;73.36;99555.48;1741007;82;21501;-77
2021/04/06 02:42:50;;;;;;;11.45;2.20;;;;;;;0.41;73.51;99552.08;1738159;81;20322;-77
2021/04/06 02:45:29;;;;;;;9.40;1.87;;;;;;;0.38;73.32;99558.41;1729182;82;21432;-78
2021/04/06 02:48:06;;;;;;;9.65;2.05;;;;;;;0.35;73.34;99564.73;1692873;83;21493;-77
2021/04/06 02:50:35;;;;;;;14.30;2.20;;;;;;;0.32;73.30;99568.11;1724994;82;22315;-77
2021/04/06 02:53:08;;;;;;;9.98;1.92;;;;;;;0.31;73.38;99572.77;1732711;82;21663;-77
2021/04/06 02:55:36;;;;;;;7.87;1.85;;;;;;;0.29;73.34;99570.62;1733883;82;21223;-77
2021/04/06 02:58:15;;;;;;;9.93;1.95;;;;;;;0.28;73.41;99577.81;1732146;82;21191;-77
2021/04/06 03:00:41;;;;;;;14.73;2.83;;;;;;;0.26;73.43;99579.91;1738215;82;21616;-77
2021/04/06 03:03:28;;;;;;;12.68;3.20;;;;;;;0.22;73.34;99576.49;1738365;82;21195;-77
2021/04/06 03:06:04;;;;;;;8.73;1.82;;;;;;;0.22;73.47;99576.91;1716297;82;21661;-77
2021/04/06 03:08:32;;;;;;;11.65;1.90;;;;;;;0.21;73.44;99577.33;1735882;82;21513;-77
2021/04/06 03:10:59;;;;;;;9.78;2.15;;;;;;;0.20;73.44;99577.31;1742706;81;21492;-77
2021/04/06 03:13:27;;;;;;;13.78;1.98;;;;;;;0.21;73.50;99584.11;1730350;82;21607;-77
2021/04/06 03:15:56;;;;;;;5.10;2.35;;;;;;;0.20;73.45;99581.98;1733068;82;21487;-77
2021/04/06 03:18:34;;;;;;;8.53;1.50;;;;;;;0.19;73.43;99587.91;1718413;82;21615;-77
2021/04/06 03:21:04;;;;;;;16.65;2.17;;;;;;;0.20;73.45;99585.80;1734970;82;21600;-77
2021/04/06 03:23:32;;;;;;;8.13;1.77;;;;;;;0.20;73.48;99586.22;1743246;82;21509;-77
2021/04/06 03:26:00;;;;;;;7.12;2.15;;;;;;;0.20;73.47;99581.13;1731299;82;21430;-77
2021/04/06 03:28:40;;;;;;;8.63;1.67;;;;;;;0.21;73.54;99586.65;1738284;82;21493;-77
2021/04/06 03:31:13;;;;;;;11.30;1.90;;;;;;;0.23;73.44;99587.52;1729114;82;20969;-77
2021/04/06 03:33:45;;;;;;;17.60;1.92;;;;;;;0.21;73.47;99589.19;1743997;80;21410;-77
2021/04/06 03:36:29;;;;;;;9.70;2.05;;;;;;;0.21;73.46;99590.46;1722315;82;21985;-77
2021/04/06 03:39:00;;;;;;;10.78;2.35;;;;;;;0.18;73.47;99595.09;1727005;82;21379;-77
2021/04/06 03:41:29;;;;;;;8.28;1.70;;;;;;;0.17;73.53;99593.39;1737579;82;21415;-77
2021/04/06 03:44:11;;;;;;;13.32;2.77;;;;;;;0.18;73.56;99599.33;1742702;80;20985;-77
2021/04/06 03:46:39;;;;;;;9.50;2.65;;;;;;;0.20;73.53;99600.20;1725607;82;20993;-77
2021/04/06 03:49:26;;;;;;;15.40;2.70;;;;;;;0.18;73.46;99601.88;1744161;82;21415;-77
2021/04/06 03:52:08;;;;;;;10.25;2.90;;;;;;;0.16;73.43;99604.81;1731544;81;21214;-77
2021/04/06 03:54:47;;;;;;;10.85;2.30;;;;;;;0.15;73.48;99607.78;1732512;81;21187;-77
2021/04/06 03:57:45;;;;;;;9.20;2.45;;;;;;;0.13;73.53;99609.88;1746710;80;21152;-77
2021/04/06 04:00:10;;;;;;;13.62;3.65;;;;;;;0.10;73.53;99609.84;1739169;81;21604;-77
2021/04/06 04:02:49;;;;;;;11.57;2.55;;;;;;;0.09;73.42;99606.86;1720474;82;21635;-78
2021/04/06 04:05:16;;;;;;;12.55;1.82;;;;;;;0.06;73.54;99601.75;1742339;82;48229;-78
2021/04/06 04:07:43;;;;;;;19.23;3.12;;;;;;;0.05;73.52;99606.40;1739386;81;22276;-77
2021/04/06 04:10:15;;;;;;;14.83;2.92;;;;;;;0.05;73.59;99605.13;1744451;81;21160;-77
2021/04/06 04:12:41;;;;;;;14.65;2.77;;;;;;;0.04;73.60;99608.09;1746346;81;21198;-77
2021/04/06 04:15:09;;;;;;;16.02;4.42;;;;;;;0.04;73.56;99609.78;1750358;81;21140;-77
2021/04/06 04:17:39;;;;;;;11.12;2.25;;;;;;;0.03;73.59;99615.70;1736520;80;21211;-76
2021/04/06 04:20:13;;;;;;;10.90;2.27;;;;;;;0.04;73.59;99611.05;1738518;82;21167;-76
2021/04/06 04:22:40;;;;;;;13.90;2.62;;;;;;;0.03;73.58;99610.61;1732232;82;21207;-76
2021/04/06 04:25:09;;;;;;;6.25;2.20;;;;;;;0.03;73.60;99613.16;1712566;82;21175;-77
2021/04/06 04:27:36;;;;;;;14.95;2.10;;;;;;;0.04;73.58;99610.63;1729648;82;21231;-77
2021/04/06 04:30:03;;;;;;;7.80;2.15;;;;;;;0.03;73.59;99620.36;1741359;82;21217;-77
2021/04/06 04:32:30;;;;;;;7.78;2.17;;;;;;;0.05;73.66;99611.48;1732838;82;21226;-77
2021/04/06 04:35:15;;;;;;;17.40;2.53;;;;;;;0.06;73.61;99611.91;1741671;80;21224;-77
2021/04/06 04:38:00;;;;;;;13.88;2.58;;;;;;;0.05;73.56;99621.23;1741807;82;21414;-77
2021/04/06 04:40:46;;;;;;;17.75;2.60;;;;;;;0.04;73.56;99618.67;1741809;82;21489;-77
2021/04/06 04:43:30;;;;;;;12.05;2.37;;;;;;;0.06;73.60;99619.54;1729545;80;21195;-77
2021/04/06 04:46:15;;;;;;;10.43;2.22;;;;;;;0.08;73.60;99625.07;1741140;80;21235;-77
2021/04/06 04:49:00;;;;;;;7.50;1.87;;;;;;;0.10;73.65;99618.73;1740633;80;21215;-77
2021/04/06 04:51:46;;;;;;;11.20;2.17;;;;;;;0.14;73.69;99625.55;1731660;80;21548;-77
2021/04/06 04:54:31;;;;;;;11.68;3.85;;;;;;;0.18;73.67;99637.04;1734441;82;21179;-77
2021/04/06 04:57:16;;;;;;;16.95;3.67;;;;;;;0.21;73.65;99634.53;1730731;82;21224;-77
2021/04/06 05:00:01;;;;;;;11.50;3.47;;;;;;;0.24;73.64;99637.09;1731544;80;21202;-77
2021/04/06 05:02:46;;;;;;;6.43;2.70;;;;;;;0.28;73.66;99640.52;1719739;82;21211;-77
2021/04/06 05:05:32;;;;;;;10.30;1.57;;;;;;;0.31;73.61;99640.55;1716784;82;21252;-77
2021/04/06 05:08:17;;;;;;;8.20;2.52;;;;;;;0.34;73.54;99645.67;1726602;82;21199;-77
2021/04/06 05:11:02;;;;;;;14.25;3.22;;;;;;;0.36;73.60;99644.41;1727777;81;21199;-76
2021/04/06 05:13:47;;;;;;;7.10;1.80;;;;;;;0.38;73.61;99641.05;1729379;81;21251;-76
2021/04/06 05:16:32;;;;;;;11.33;3.10;;;;;;;0.41;73.61;99643.62;1731634;82;21105;-76
2021/04/06 05:19:17;;;;;;;11.90;1.90;;;;;;;0.46;73.64;99637.30;1736365;81;21176;-76
2021/04/06 05:22:03;;;;;;;12.67;2.70;;;;;;;0.50;73.68;99639.89;1728195;82;21041;-77
2021/04/06 05:24:48;;;;;;;7.33;1.95;;;;;;;0.52;73.60;99634.81;1719929;81;21224;-77
2021/04/06 05:27:33;;;;;;;9.70;1.72;;;;;;;0.55;73.63;99642.02;1730301;81;21195;-77
2021/04/06 05:30:21;;;;;;;4.58;1.70;;;;;;;0.56;73.54;99637.36;1721219;82;21223;-77
2021/04/06 05:33:06;;;;;;;10.88;2.17;;;;;;;0.59;73.62;99634.00;1723237;82;21132;-77
2021/04/06 05:35:51;;;;;;;6.40;2.17;;;;;;;0.62;73.56;99646.74;1723263;82;21123;-77
2021/04/06 05:38:36;;;;;;;8.53;2.40;;;;;;;0.54;73.53;99628.88;1728182;82;21798;-77
2021/04/06 05:41:23;;;;;;;5.72;1.77;;;;;;;0.66;73.52;99650.59;1738401;82;21309;-77
2021/04/06 05:43:56;;;;;;;11.05;2.17;;;;;;;0.69;73.56;99654.86;1730313;82;20970;-77
2021/04/06 05:46:23;;;;;;;11.00;2.55;;;;;;;0.71;73.53;99649.36;1731347;82;21144;-77
2021/04/06 05:48:50;;;;;;;8.78;2.02;;;;;;;0.71;73.51;99655.72;1724639;82;21128;-77
2021/04/06 05:51:17;;;;;;;9.18;2.12;;;;;;;0.73;73.50;99664.64;1727736;82;21203;-77
2021/04/06 05:53:43;;;;;;;;;;;;;;;0.75;73.55;99662.96;1731152;82;21224;-77
2021/04/06 05:56:12;;;;;;;11.45;2.85;;;;;;;0.80;73.62;99668.94;1693092;84;20296;-77
2021/04/06 05:58:38;;;;;;;12.63;2.83;;;;;;;0.84;73.65;99668.98;1672879;85;21236;-77
2021/04/06 06:01:05;;;;;;;6.75;1.98;;;;;;;0.89;73.63;99664.78;1678978;85;21206;-77
2021/04/06 06:03:31;;;;;;;4.90;2.22;;;;;;;0.96;73.62;99669.08;1674982;84;21209;-77
2021/04/06 06:05:58;;;;;;;6.65;2.30;;;;;;;1.00;73.48;99668.67;1670690;85;21242;-77
2021/04/06 06:08:25;;;;;;;17.65;2.77;;;;;;;1.02;73.50;99660.63;1682631;85;21199;-77
2021/04/06 06:11:11;;;;;;;7.95;2.67;;;;;;;1.07;73.52;99667.84;1682638;83;21693;-77
2021/04/06 06:13:53;;;;;;;11.33;2.30;;;;;;;1.10;73.47;99662.78;1695742;83;21228;-78
2021/04/06 06:16:38;;;;;;;16.85;3.52;;;;;;;1.15;73.54;99658.98;1680333;83;21238;-77
2021/04/06 06:19:25;;;;;;;30.97;6.87;;;;;;;1.21;73.48;99659.88;1675927;85;21245;-77
2021/04/06 06:22:14;;;;;;;28.42;7.87;;;;;;;1.23;73.37;99660.75;1682716;83;21226;-77
2021/04/06 06:25:09;;;;;;;19.32;4.17;;;;;;;1.25;73.42;99660.33;1677839;83;21808;-76
2021/04/06 06:27:54;;;;;;;9.43;2.80;;;;;;;1.30;73.45;99657.81;1675031;83;21249;-78
2021/04/06 06:30:40;;;;;;;18.90;3.95;;;;;;;1.38;73.48;99651.50;1671238;85;21213;-77
2021/04/06 06:33:29;;;;;;;8.43;2.27;;;;;;;1.45;73.42;99655.36;1667932;84;21711;-77
2021/04/06 06:36:14;;;;;;;6.90;2.12;;;;;;;1.50;73.38;99649.02;1658888;84;21509;-76
2021/04/06 06:39:04;;;;;;;9.95;2.95;;;;;;;1.61;73.55;99649.47;1676608;83;21222;-78
2021/04/06 06:42:05;;;;;;;13.20;3.40;;;;;;;1.70;73.41;99652.90;1673585;85;21226;-78
2021/04/06 06:44:50;;;;;;;18.70;5.12;;;;;;;1.79;73.41;99661.86;1670586;85;21634;-78
2021/04/06 06:47:35;;;;;;;11.35;3.27;;;;;;;1.87;73.31;99657.22;1680603;83;21765;-77
2021/04/06 06:50:20;;;;;;;14.40;4.22;;;;;;;1.95;73.28;99661.92;1681999;83;21237;-78
2021/04/06 06:53:05;;;;;;;16.27;4.03;;;;;;;1.96;73.31;99652.16;1681142;82;21250;-78
2021/04/06 06:55:53;;;;;;;8.53;2.80;;;;;;;2.06;73.27;99653.45;1661523;84;21749;-77
2021/04/06 06:58:42;;;;;;;16.85;2.90;;;;;;;2.14;73.27;99650.05;1686492;83;21211;-77
2021/04/06 07:01:30;;;;;;;12.05;3.55;;;;;;;2.26;73.30;99659.44;1671764;83;21895;-77
2021/04/06 07:04:15;;;;;;;12.75;3.80;;;;;;;2.33;73.24;99651.80;1683102;84;21154;-77
2021/04/06 07:07:00;;;;;;;13.90;4.50;;;;;;;2.46;73.21;99651.81;1682331;84;21432;-77
2021/04/06 07:09:47;;;;;;;12.50;3.85;;;;;;;2.49;73.05;99651.82;1672143;85;21178;-77
2021/04/06 07:12:33;;;;;;;9.90;3.62;;;;;;;2.52;73.02;99644.17;1677693;83;21039;-77
2021/04/06 07:15:18;;;;;;;9.85;3.08;;;;;;;2.53;72.98;99651.83;1741159;82;21104;-78
2021/04/06 07:18:14;;;;;;;10.32;3.27;;;;;;;2.55;73.13;99646.30;1735478;80;21156;-77
2021/04/06 07:21:05;;;;;;;9.63;3.35;;;;;;;2.59;73.07;99650.98;1741085;80;21143;-77
2021/04/06 07:24:06;;;;;;;10.48;3.42;;;;;;;2.61;73.05;99660.73;1740696;82;21136;-77
2021/04/06 07:26:51;;;;;;;9.10;4.10;;;;;;;2.60;72.98;99669.27;1743070;81;21136;-77
2021/04/06 07:29:38;;;;;;;12.28;3.92;;;;;;;2.58;72.98;99667.99;1742497;81;21119;-77
2021/04/06 07:32:23;;;;;;;12.58;3.33;;;;;;;2.63;73.12;99663.72;1739586;82;20998;-77
2021/04/06 07:35:13;;;;;;;11.10;3.05;;;;;;;2.76;73.16;99670.95;1736759;82;21135;-77
2021/04/06 07:37:58;;;;;;;5.10;2.17;;;;;;;2.79;72.96;99674.78;1739767;82;21158;-77
2021/04/06 07:40:43;;;;;;;8.88;2.20;;;;;;;2.80;72.91;99671.38;1717106;79;21484;-77
2021/04/06 07:43:29;;;;;;;7.25;2.72;;;;;;;2.78;72.75;99674.36;1736472;80;21207;-77
2021/04/06 07:46:41;;;;;;;9.13;2.57;;;;;;;2.81;72.92;99680.74;1737471;80;21628;-77
2021/04/06 07:49:31;;;;;;;14.43;3.60;;;;;;;2.87;72.90;99682.45;1737344;80;21436;-77
2021/04/06 07:52:19;;;;;;;11.10;3.55;;;;;;;2.96;72.92;99685.00;1742065;82;21188;-77
2021/04/06 07:55:04;;;;;;;13.75;5.40;;;;;;;3.03;72.87;99694.36;1741786;82;21223;-77
2021/04/06 07:57:50;;;;;;;15.85;5.55;;;;;;;3.07;72.84;99697.77;1738864;82;21183;-77
2021/04/06 08:00:50;;;;;;;13.30;4.05;;;;;;;3.15;72.85;99684.11;1735404;80;21183;-76
2021/04/06 08:04:00;;;;;;;5.85;3.35;;;;;;;3.19;72.70;99691.34;1737567;82;21195;-73
2021/04/06 08:06:49;;;;;;;10.00;2.75;;;;;;;3.17;72.71;99689.22;1729546;81;21207;-73
2021/04/06 08:09:37;;;;;;;8.38;2.83;;;;;;;3.15;72.66;99698.58;1721530;82;21496;-73
2021/04/06 08:12:34;;;;;;;11.40;2.47;;;;;;;3.10;72.59;99693.94;1741026;80;21251;-73
2021/04/06 08:15:21;;;;;;;15.83;4.58;;;;;;;3.06;72.45;99699.47;1736615;82;21184;-73
2021/04/06 08:18:06;;;;;;;12.65;2.83;;;;;;;3.03;72.67;99691.81;1737934;82;21171;-73
2021/04/06 08:20:52;;;;;;;8.80;3.10;;;;;;;3.15;72.81;99683.26;1733147;82;21203;-73
2021/04/06 08:23:43;;;;;;;9.75;3.30;;;;;;;3.22;72.73;99695.17;1704163;82;21180;-72
2021/04/06 08:26:34;;;;;;;10.38;3.35;;;;;;;3.31;72.77;99688.77;1739375;81;21191;-72
2021/04/06 08:29:27;;;;;;;11.60;3.40;;;;;;;3.48;72.83;99693.86;1749747;81;21144;-72
2021/04/06 08:32:17;;;;;;;6.28;2.58;;;;;;;3.66;72.81;99688.24;1739973;81;21016;-75
2021/04/06 08:35:02;;;;;;;8.65;2.47;;;;;;;3.78;72.56;99695.45;1742376;81;21120;-76
2021/04/06 08:37:47;;;;;;;7.03;2.72;;;;;;;3.83;72.36;99697.56;1741111;81;21613;-76
2021/04/06 08:40:45;;;;;;;7.83;2.25;;;;;;;3.86;72.50;99689.89;1733494;80;21187;-76
2021/04/06 08:43:19;;;;;;;9.23;2.58;;;;;;;3.96;72.53;99690.27;1739489;82;21183;-73
2021/04/06 08:46:05;;;;;;;9.28;2.62;;;;;;;4.12;72.57;99687.22;1733100;80;21056;-73
2021/04/06 08:48:52;;;;;;;13.22;3.17;;;;;;;4.27;72.62;99682.00;1737472;82;21211;-73
2021/04/06 08:51:54;;;;;;;4.92;2.25;;;;;;;4.50;72.56;99681.44;1743217;82;21210;-73
2021/04/06 08:54:39;;;;;;;14.13;4.58;;;;;;;4.69;72.61;99677.44;1729567;82;21231;-73
2021/04/06 08:57:24;;;;;;;11.53;4.33;;;;;;;4.94;72.38;99691.77;1740089;82;21351;-76
2021/04/06 09:00:13;;;;;;;11.45;4.83;;;;;;;5.10;72.41;99688.22;1734626;82;21210;-76
2021/04/06 09:03:05;;;;;;;7.80;2.83;;;;;;;5.22;72.19;99680.39;1737702;82;21220;-72
2021/04/06 09:05:50;;;;;;;9.38;2.27;;;;;;;5.24;72.06;99679.94;1734244;82;21620;-76
2021/04/06 09:08:55;;;;;;;8.78;2.10;;;;;;;5.28;71.98;99679.48;1739251;82;21975;-76
2021/04/06 09:11:42;;;;;;;8.80;3.10;;;;;;;5.26;72.01;99675.66;1715773;80;21231;-76
2021/04/06 09:14:31;;;;;;;11.97;3.33;;;;;;;5.28;71.97;99688.45;1731613;80;21203;-76
2021/04/06 09:17:16;;;;;;;8.33;2.87;;;;;;;5.35;71.91;99695.22;1721809;82;21191;-76
2021/04/06 09:20:11;;;;;;;12.77;2.90;;;;;;;5.39;71.49;99693.05;1740018;80;21509;-76
2021/04/06 09:22:40;;;;;;;9.23;2.77;;;;;;;5.39;71.49;99693.05;1736515;82;21954;-76
2021/04/06 09:25:28;;;;;;;13.93;5.42;;;;;;;5.31;71.71;99689.27;1732993;80;21505;-77
2021/04/06 09:28:07;;;;;;;8.93;3.25;;;;;;;5.28;71.63;99696.99;1734924;80;21211;-76
2021/04/06 09:30:44;;;;;;;10.45;3.90;;;;;;;5.26;71.63;99695.30;1735934;81;21116;-76
2021/04/06 09:33:17;;;;;;;7.78;2.37;;;;;;;5.24;71.72;99687.63;1733306;82;21453;-76
2021/04/06 09:35:50;;;;;;;13.38;3.05;;;;;;;5.19;71.58;99683.02;1733120;81;21152;-76
2021/04/06 09:38:21;;;;;;;9.68;2.80;;;;;;;5.24;71.70;99686.78;1718313;82;21119;-73
2021/04/06 09:40:48;;;;;;;12.95;3.30;;;;;;;5.28;71.73;99690.58;1735004;82;21123;-73
2021/04/06 09:43:32;;;;;;;9.65;2.47;;;;;;;5.30;71.71;99687.58;1736318;82;21611;-73
2021/04/06 09:45:59;;;;;;;10.88;2.50;;;;;;;5.41;71.76;99680.21;1743839;82;21111;-73
2021/04/06 09:48:31;;;;;;;9.63;2.60;;;;;;;5.53;71.83;99683.94;1720747;82;21109;-73
2021/04/06 09:51:14;;;;;;;8.28;3.00;;;;;;;5.67;71.47;99683.79;1726328;82;21617;-73
2021/04/06 09:53:49;;;;;;;14.75;3.20;;;;;;;5.83;71.60;99681.44;1735006;82;20958;-73
2021/04/06 09:56:29;;;;;;;11.05;3.08;;;;;;;6.02;71.47;99679.53;1738744;81;21186;-74
2021/04/06 09:58:56;;;;;;;8.40;2.10;;;;;;;6.14;71.25;99676.38;1738450;81;21104;-73
2021/04/06 10:01:41;;;;;;;6.78;2.27;;;;;;;6.24;71.27;99664.24;1717858;82;21192;-73
2021/04/06 10:04:37;;;;;;;6.62;2.17;;;;;;;6.27;70.92;99666.33;1719694;82;21195;-73
2021/04/06 10:07:35;;;;;;;7.37;2.10;;;;;;;6.29;71.06;99665.87;1734836;80;21263;-73
2021/04/06 10:10:26;;;;;;;6.30;2.05;;;;;;;6.45;71.00;99659.24;1732551;80;21135;-73
2021/04/06 10:13:11;;;;;;;7.45;1.92;;;;;;;6.43;70.52;99661.83;1718255;82;21133;-74
2021/04/06 10:16:13;;;;;;;6.15;2.60;;;;;;;6.48;70.57;99658.77;1734124;80;21327;-73
2021/04/06 10:18:59;;;;;;;9.58;2.20;;;;;;;6.54;70.61;99652.69;1731433;80;21143;-73
2021/04/06 10:21:44;;;;;;;7.03;3.20;;;;;;;6.60;70.53;99662.88;1729341;82;21104;-73
2021/04/06 10:24:32;;;;;;;8.85;2.17;;;;;;;6.63;70.43;99655.97;1741290;79;21198;-73
2021/04/06 10:27:30;;;;;;;5.45;1.82;;;;;;;6.66;70.33;99652.94;1692030;82;21670;-73
2021/04/06 10:30:26;;;;;;;7.28;2.33;;;;;;;6.75;70.37;99660.07;1731845;82;21782;-73
2021/04/06 10:33:11;;;;;;;10.10;2.52;;;;;;;6.80;70.17;99650.53;1736617;80;21389;-74
2021/04/06 10:36:11;;;;;;;6.75;1.82;;;;;;;6.74;69.89;99661.38;1729676;80;332775;-75
2021/04/06 10:39:01;;;;;;;8.03;1.82;;;;;;;6.76;70.09;99649.36;1723853;82;21184;-75
2021/04/06 10:41:28;;;;;;;9.30;1.67;;;;;;;6.95;70.28;99644.30;1724678;82;21596;-74
2021/04/06 10:44:13;;;;;;;7.25;1.95;;;;;;;7.06;69.90;99650.11;1737732;80;21192;-75
2021/04/06 10:46:42;;;;;;;7.58;2.10;;;;;;;7.07;69.65;99635.09;1742111;80;21449;-75
2021/04/06 10:49:09;;;;;;;10.25;2.40;;;;;;;7.16;69.87;99646.50;1740720;80;21624;-75
2021/04/06 10:51:52;;;;;;;9.00;1.90;;;;;;;7.25;69.68;99632.20;1743542;80;21215;-75
2021/04/06 10:54:18;;;;;;;;;;;;;;;7.31;69.60;99635.91;1740383;82;21192;-75
2021/04/06 10:56:49;;;;;;;;;;;;;;;7.26;69.01;99631.77;1743205;82;20472;-75
2021/04/06 10:59:18;;;;;;;;;;;;;;;7.22;68.92;99628.40;1734462;80;20306;-75
2021/04/06 11:01:47;;;;;;;;;;;;;;;7.14;68.85;99634.11;1741440;80;20283;-74
2021/04/06 11:04:15;;;;;;;;;;;;;;;7.07;68.72;99634.25;1701177;83;20490;-75
2021/04/06 11:06:50;;;;;;;;;;;;;;;7.04;68.92;99636.44;1700857;82;20310;-74
2021/04/06 11:09:40;;;;;;;;;;;;;;;7.10;68.92;99635.48;1663018;85;20330;-74
2021/04/06 11:12:25;;;;;;;;;;;;;;;7.21;68.95;99633.57;1669412;83;20256;-75
2021/04/06 11:15:10;;;;;;;;;;;;;;;7.26;68.89;99626.19;1671879;85;20224;-75
2021/04/06 11:17:57;;;;;;;;;;;;;;;7.22;68.52;99634.83;1664982;85;20278;-75
2021/04/06 11:20:42;;;;;;;;;;;;;;;7.25;68.77;99631.35;1663129;85;20278;-74
2021/04/06 11:23:27;;;;;;;;;;;;;;;7.25;68.38;99634.77;1657002;85;20270;-74
2021/04/06 11:26:12;;;;;;;;;;;;;;;7.28;68.35;99624.84;1668103;85;20278;-75
2021/04/06 11:28:56;;;;;;;;;;;;;;;7.42;68.64;99629.73;1665394;85;20263;-75
2021/04/06 11:31:42;;;;;;;;;;;;;;;7.55;68.50;99620.90;1646332;85;20269;-74
2021/04/06 11:34:28;;;;;;;;;;;;;;;7.72;68.33;99613.70;1660999;85;20272;-75
2021/04/06 11:37:13;;;;;;;;;;;;;;;7.75;67.81;99614.07;1660110;85;20181;-74
2021/04/06 11:39:58;;;;;;;;;;;;;;;7.70;67.77;99623.17;1661150;85;20171;-75
2021/04/06 11:42:42;;;;;;;;;;;;;;;7.57;67.43;99617.42;1670793;85;20169;-75
2021/04/06 11:45:27;;;;;;;;;;;;;;;7.49;67.47;99615.88;1667445;85;20442;-75
2021/04/06 11:48:12;;;;;;;;;;;;;;;7.57;67.79;99613.56;1669165;85;20615;-74
2021/04/06 11:50:56;;;;;;;;;;;;;;;7.78;67.88;99612.72;1668341;85;20626;-75
2021/04/06 11:53:41;;;;;;;;;;;;;;;7.91;67.53;99606.41;1676143;85;20287;-75
2021/04/06 11:56:26;;;;;;;;;;;;;;;7.85;67.31;99606.09;1672138;85;20320;-74
2021/04/06 11:59:12;;;;;;;;;;;;;;;7.70;66.96;99619.31;1657882;85;20287;-74
2021/04/06 12:01:57;;;;;;;;;;;;;;;7.55;66.74;99620.46;1674231;85;20315;-74
2021/04/06 12:04:42;;;;;;;;;;;;;;;7.33;66.10;99614.47;1675596;85;20308;-74
2021/04/06 12:07:26;;;;;;;;;;;;;;;7.10;66.29;99618.77;1692700;84;20923;-75
2021/04/06 12:10:14;;;;;;;;;;;;;;;7.03;66.61;99615.46;1689124;84;20227;-74
2021/04/06 12:12:58;;;;;;;;;;;;;;;7.02;66.60;99616.34;1673136;84;20299;-74
2021/04/06 12:15:44;;;;;;;;;;;;;;;7.02;66.38;99615.48;1679362;84;20402;-74
2021/04/06 12:18:29;;;;;;;;;;;;;;;7.05;66.58;99607.72;1679371;84;20743;-74
2021/04/06 12:21:13;;;;;;;;;;;;;;;7.16;66.48;99598.09;1681005;84;20236;-74
2021/04/06 12:23:58;;;;;;;;;;;;;;;7.24;66.31;99602.22;1683352;84;20319;-74
2021/04/06 12:26:42;;;;;;;;;;;;;;;7.22;65.86;99598.83;1681662;84;20436;-74
2021/04/06 12:29:27;;;;;;;;;;;;;;;7.14;65.75;99601.13;1676868;83;20713;-74
2021/04/06 12:32:11;;;;;;;;;;;;;;;7.04;65.53;99609.45;1679125;84;20394;-74
2021/04/06 12:34:56;;;;;;;;;;;;;;;6.94;65.50;99609.20;1678699;83;20327;-74
2021/04/06 12:37:40;;;;;;;;;;;;;;;6.90;65.58;99601.12;1677507;84;20283;-74
2021/04/06 12:40:28;;;;;;;;;;;;;;;6.96;65.65;99595.88;1675129;84;20303;-75
2021/04/06 12:43:11;;;;;;;;;;;;;;;7.01;65.53;99588.09;1673129;84;20307;-75
2021/04/06 12:45:56;;;;;;;;;;;;;;;6.95;65.32;99591.62;1673102;83;20299;-75
2021/04/06 12:48:40;;;;;;;;;;;;;;;6.87;65.29;99590.91;1676833;84;20682;-75